VHHH METAR and TAF | Updated Today

VHHH METAR

Hong Kong International Airport

Observation time: 404:52 hr. ago

VHHH 130030Z 30003KT CAVOK 31/23 Q1009 NOSIG

Need help? Read our tutorial on how to read METARs or read the parsed version below.

Hong Kong International Airport (VHHH) METAR

  • Weather conditions on Tue, 13 Sep 2022 00:30:00 +0000 (404:52 hr. ago):
  • Present conditions: Dry
  • Clouds: Clear skies
  • Visibility: Greater than 10 km
  • Wind: 300 degrees at 3 knots
  • Temperature: 31 celsius
  • Dew point: 23 celsius
  • Pressure: 1009 millibars
  • Remarks: None


Useful to know...

VHHH TAF

Hong Kong International Airport

TAF VHHH 292000Z 2921/0103 10010KT 9999 FEW015 SCT035 TX32/3006Z TN26/2922Z TN27/3022Z TEMPO 2921/3004 3500 SHRA FEW010CB SCT025
Observation time: 82 min. ago
Need help? Read our tutorial on how to read TAFs or read the parsed version below.

Parsed version of TAF for Hong Kong International Airport (VHHH)

  • From 29 September at 21:00 UTC, to day 01 of the month at 03:00 UTC
  • Clouds: A few at 457 meters; scattered at 1067 meters
  • Visibility: Greater than 10 km
  • Wind: 100 degrees at 10
  • Expected to arise temporarily, from 29 September at 21:00 UTC, to day 30 of the month at 04:00 UTC
  • Clouds: A few at 305 meters, cumulonimbus; scattered at 762 meters
  • Visibility: 3500 meters
  • Other: Showers of rain